AFR678 DTTA-LFPG
Flight info
| Callsign | AFR678 |
|---|---|
| Flight time | N/A |
| Altitude | 40000 |
| Route | TOBIB2A TOBIB UA725 OSMAR DCT PIRIX DCT GIGGI DCT UPDUT DCT CORSI DCT OMEDA DCT MERLU DCT PIGOS DCT BARSO DCT OKTET DCT GIPNO/N0470F380 DCT LOGNI DCT MOKIP DCT ARFOZ DCT TINIL |
| Aircraft | B77L/H-SDE1E2E3FGHIJ2J3J4J5M1RWXY/LB1D1 |
Departure
| Time | 2026-04-30 12:35 |
|---|---|
| Airport | Tunis Carthage International Airport (DTTA) |
Arrival
| Time | N/A |
|---|---|
| Airport | Charles de Gaulle International Airport (LFPG) |
| Time | Latitude | Longitude | Altitude | Speed | Heading |
|---|---|---|---|---|---|
| 2026-04-30 12:13 | 36.84071 | 10.21980 | 24 ft | 0 kts | 102° |
| 2026-04-30 12:28 | 36.84072 | 10.21976 | 23 ft | 2 kts | 102° |
| 2026-04-30 12:28 | 36.84076 | 10.21956 | 24 ft | 2 kts | 102° |
| 2026-04-30 12:29 | 36.84079 | 10.21936 | 27 ft | 2 kts | 102° |
| 2026-04-30 12:29 | 36.84083 | 10.21917 | 28 ft | 2 kts | 102° |
| 2026-04-30 12:29 | 36.84086 | 10.21897 | 28 ft | 2 kts | 107° |
| 2026-04-30 12:29 | 36.84092 | 10.21879 | 28 ft | 2 kts | 137° |
| 2026-04-30 12:30 | 36.84104 | 10.21870 | 28 ft | 0 kts | 186° |
| 2026-04-30 12:32 | 36.84061 | 10.21862 | 26 ft | 18 kts | 190° |
| 2026-04-30 12:32 | 36.83956 | 10.21840 | 25 ft | 11 kts | 184° |
| 2026-04-30 12:32 | 36.83904 | 10.21897 | 26 ft | 15 kts | 113° |
| 2026-04-30 12:33 | 36.83875 | 10.22040 | 25 ft | 16 kts | 103° |
| 2026-04-30 12:33 | 36.83864 | 10.22127 | 25 ft | 14 kts | 91° |
| 2026-04-30 12:33 | 36.83907 | 10.22291 | 26 ft | 23 kts | 67° |
| 2026-04-30 12:33 | 36.83992 | 10.22396 | 25 ft | 22 kts | 19° |
| 2026-04-30 12:34 | 36.84009 | 10.22402 | 24 ft | 0 kts | 12° |
| 2026-04-30 12:34 | 36.84076 | 10.22420 | 25 ft | 51 kts | 12° |
| 2026-04-30 12:34 | 36.84854 | 10.22628 | 119 ft | 164 kts | 11° |
| 2026-04-30 12:35 | 36.86013 | 10.22920 | 1510 ft | 167 kts | 11° |
| 2026-04-30 12:35 | 36.87103 | 10.23256 | 2707 ft | 161 kts | 13° |
| 2026-04-30 12:35 | 36.88279 | 10.23277 | 3119 ft | 186 kts | 335° |
| 2026-04-30 12:35 | 36.89209 | 10.22038 | 3439 ft | 217 kts | 292° |
| 2026-04-30 12:36 | 36.89735 | 10.20156 | 3736 ft | 239 kts | 302° |
| 2026-04-30 12:36 | 36.91043 | 10.18885 | 4630 ft | 246 kts | 340° |
| 2026-04-30 12:36 | 36.92766 | 10.18674 | 5483 ft | 251 kts | 358° |
| 2026-04-30 12:36 | 36.94537 | 10.18626 | 6379 ft | 255 kts | 354° |
| 2026-04-30 12:37 | 36.96320 | 10.18449 | 7304 ft | 258 kts | 351° |
| 2026-04-30 12:37 | 36.98763 | 10.18047 | 8524 ft | 262 kts | 348° |
| 2026-04-30 12:37 | 37.00625 | 10.17652 | 9057 ft | 262 kts | 346° |
| 2026-04-30 12:37 | 37.02400 | 10.17223 | 9575 ft | 264 kts | 345° |
| 2026-04-30 12:38 | 37.04202 | 10.16751 | 10017 ft | 267 kts | 344° |
| 2026-04-30 12:38 | 37.06034 | 10.16245 | 10028 ft | 270 kts | 343° |
| 2026-04-30 12:38 | 37.07863 | 10.15723 | 10034 ft | 268 kts | 343° |
| 2026-04-30 12:38 | 37.09671 | 10.15195 | 10032 ft | 266 kts | 343° |
| 2026-04-30 12:39 | 37.11466 | 10.14662 | 10031 ft | 265 kts | 343° |
| 2026-04-30 12:39 | 37.13268 | 10.14122 | 10042 ft | 266 kts | 343° |
| 2026-04-30 12:39 | 37.15069 | 10.13579 | 10048 ft | 266 kts | 343° |
| 2026-04-30 12:39 | 37.16871 | 10.13033 | 10092 ft | 267 kts | 343° |
| 2026-04-30 12:40 | 37.18659 | 10.12489 | 10772 ft | 270 kts | 342° |
| 2026-04-30 12:40 | 37.20480 | 10.11934 | 11756 ft | 270 kts | 342° |
| 2026-04-30 12:40 | 37.22325 | 10.11371 | 12792 ft | 275 kts | 342° |
| 2026-04-30 12:40 | 37.24237 | 10.10784 | 13550 ft | 294 kts | 342° |
| 2026-04-30 12:41 | 37.26338 | 10.10134 | 13852 ft | 328 kts | 342° |
| 2026-04-30 12:41 | 37.28667 | 10.09417 | 14140 ft | 358 kts | 343° |
| 2026-04-30 12:41 | 37.31134 | 10.08666 | 14926 ft | 371 kts | 343° |
| 2026-04-30 12:41 | 37.33671 | 10.07896 | 15878 ft | 378 kts | 343° |
| 2026-04-30 12:42 | 37.36252 | 10.07109 | 16909 ft | 384 kts | 343° |
| 2026-04-30 12:42 | 37.38877 | 10.06305 | 17899 ft | 391 kts | 343° |
| 2026-04-30 12:42 | 37.41542 | 10.05484 | 18782 ft | 397 kts | 343° |
| 2026-04-30 12:42 | 37.44218 | 10.04647 | 19669 ft | 401 kts | 343° |
| 2026-04-30 12:43 | 37.46932 | 10.03792 | 20616 ft | 404 kts | 342° |
| 2026-04-30 12:43 | 37.49670 | 10.02928 | 21524 ft | 407 kts | 342° |
| 2026-04-30 12:43 | 37.52433 | 10.02056 | 22422 ft | 411 kts | 342° |
| 2026-04-30 12:43 | 37.55230 | 10.01172 | 23221 ft | 418 kts | 342° |
| 2026-04-30 12:44 | 37.58080 | 10.00273 | 23955 ft | 424 kts | 342° |
| 2026-04-30 12:44 | 37.60951 | 9.99367 | 24707 ft | 427 kts | 342° |
| 2026-04-30 12:44 | 37.63840 | 9.98456 | 25483 ft | 429 kts | 342° |
| 2026-04-30 12:44 | 37.66751 | 9.97537 | 26218 ft | 433 kts | 342° |
| 2026-04-30 12:45 | 37.69684 | 9.96609 | 26913 ft | 437 kts | 342° |
| 2026-04-30 12:45 | 37.72656 | 9.95668 | 27594 ft | 441 kts | 342° |
| 2026-04-30 12:45 | 37.75646 | 9.94721 | 28264 ft | 445 kts | 342° |
| 2026-04-30 12:45 | 37.78665 | 9.93760 | 28957 ft | 449 kts | 342° |
| 2026-04-30 12:46 | 37.81661 | 9.92802 | 29592 ft | 452 kts | 341° |
| 2026-04-30 12:46 | 37.84723 | 9.91822 | 30194 ft | 455 kts | 341° |
| 2026-04-30 12:46 | 37.87806 | 9.90834 | 30668 ft | 459 kts | 341° |
| 2026-04-30 12:46 | 37.90916 | 9.89836 | 31134 ft | 462 kts | 341° |
| 2026-04-30 12:47 | 37.94034 | 9.88837 | 31699 ft | 461 kts | 341° |
| 2026-04-30 12:47 | 37.97135 | 9.87844 | 32360 ft | 459 kts | 341° |
| 2026-04-30 12:47 | 38.00223 | 9.86855 | 33044 ft | 456 kts | 341° |
| 2026-04-30 12:47 | 38.03297 | 9.85868 | 33671 ft | 454 kts | 341° |
| 2026-04-30 12:48 | 38.06360 | 9.84882 | 34235 ft | 453 kts | 341° |
| 2026-04-30 12:48 | 38.09418 | 9.83897 | 34723 ft | 452 kts | 341° |
| 2026-04-30 12:48 | 38.12466 | 9.82913 | 35161 ft | 452 kts | 341° |
| 2026-04-30 12:48 | 38.15528 | 9.81924 | 35550 ft | 453 kts | 341° |
| 2026-04-30 12:49 | 38.18585 | 9.80937 | 36026 ft | 452 kts | 341° |
| 2026-04-30 12:49 | 38.21626 | 9.79955 | 36542 ft | 450 kts | 340° |
| 2026-04-30 12:49 | 38.24627 | 9.78985 | 37032 ft | 449 kts | 340° |
| 2026-04-30 12:49 | 38.27638 | 9.78013 | 37572 ft | 446 kts | 340° |
| 2026-04-30 12:50 | 38.30644 | 9.77049 | 38040 ft | 445 kts | 340° |
| 2026-04-30 12:50 | 38.33648 | 9.76085 | 38456 ft | 445 kts | 340° |
| 2026-04-30 12:50 | 38.36648 | 9.75122 | 38826 ft | 444 kts | 340° |
| 2026-04-30 12:50 | 38.39647 | 9.74158 | 39108 ft | 445 kts | 340° |
| 2026-04-30 12:51 | 38.42654 | 9.73190 | 39373 ft | 446 kts | 340° |
| 2026-04-30 12:51 | 38.45669 | 9.72218 | 39635 ft | 447 kts | 340° |
| 2026-04-30 12:51 | 38.48684 | 9.71246 | 39911 ft | 447 kts | 340° |
| 2026-04-30 12:51 | 38.51716 | 9.70266 | 40022 ft | 451 kts | 340° |
| 2026-04-30 12:52 | 38.57773 | 9.68308 | 40062 ft | 450 kts | 340° |
| 2026-04-30 12:52 | 38.63798 | 9.66362 | 40076 ft | 444 kts | 340° |
| 2026-04-30 12:53 | 38.69789 | 9.64418 | 40069 ft | 443 kts | 340° |
| 2026-04-30 12:53 | 38.75767 | 9.62474 | 40076 ft | 442 kts | 340° |
| 2026-04-30 12:54 | 38.81689 | 9.60545 | 40084 ft | 442 kts | 340° |
| 2026-04-30 12:54 | 38.87656 | 9.58599 | 40079 ft | 442 kts | 340° |
| 2026-04-30 12:55 | 38.93651 | 9.56689 | 40079 ft | 443 kts | 341° |
| 2026-04-30 12:55 | 38.99640 | 9.54903 | 40097 ft | 444 kts | 341° |
| 2026-04-30 12:56 | 39.05675 | 9.53113 | 40089 ft | 445 kts | 341° |
| 2026-04-30 12:56 | 39.11704 | 9.51307 | 40090 ft | 445 kts | 341° |
| 2026-04-30 12:57 | 39.17739 | 9.49486 | 40086 ft | 445 kts | 341° |
| 2026-04-30 12:57 | 39.23762 | 9.47666 | 40080 ft | 443 kts | 341° |
| 2026-04-30 12:58 | 39.29705 | 9.45863 | 40081 ft | 440 kts | 341° |
| 2026-04-30 12:58 | 39.35667 | 9.44053 | 40095 ft | 440 kts | 341° |
| 2026-04-30 12:59 | 39.41629 | 9.42240 | 40130 ft | 441 kts | 341° |
| 2026-04-30 12:59 | 39.47615 | 9.40419 | 40154 ft | 443 kts | 341° |
| 2026-04-30 13:00 | 39.53622 | 9.38583 | 40165 ft | 443 kts | 341° |
| 2026-04-30 13:00 | 39.59628 | 9.36748 | 40097 ft | 444 kts | 341° |
| 2026-04-30 13:01 | 39.65620 | 9.34914 | 40118 ft | 444 kts | 341° |
| 2026-04-30 13:01 | 39.71632 | 9.33069 | 40106 ft | 443 kts | 341° |
| 2026-04-30 13:02 | 39.77600 | 9.31237 | 40088 ft | 442 kts | 341° |
| 2026-04-30 13:02 | 39.83576 | 9.29397 | 40099 ft | 441 kts | 341° |
| 2026-04-30 13:03 | 39.89547 | 9.27555 | 40110 ft | 441 kts | 341° |
| 2026-04-30 13:03 | 39.95524 | 9.25708 | 40116 ft | 440 kts | 341° |
| 2026-04-30 13:04 | 40.01489 | 9.23860 | 40096 ft | 440 kts | 341° |
| 2026-04-30 13:04 | 40.07429 | 9.22019 | 40080 ft | 440 kts | 341° |
| 2026-04-30 13:05 | 40.13393 | 9.20168 | 40096 ft | 440 kts | 341° |
| 2026-04-30 13:06 | 40.22294 | 9.17395 | 40098 ft | 440 kts | 341° |
| 2026-04-30 13:06 | 40.28261 | 9.15533 | 40096 ft | 440 kts | 341° |
| 2026-04-30 13:07 | 40.34226 | 9.13669 | 40100 ft | 440 kts | 340° |
| 2026-04-30 13:07 | 40.40193 | 9.11797 | 40103 ft | 440 kts | 340° |
| 2026-04-30 13:08 | 40.46154 | 9.09925 | 40098 ft | 440 kts | 341° |
| 2026-04-30 13:08 | 40.51100 | 9.08370 | 40086 ft | 440 kts | 340° |
| 2026-04-30 13:09 | 40.57061 | 9.06491 | 40107 ft | 441 kts | 340° |
| 2026-04-30 13:09 | 40.63036 | 9.04604 | 40101 ft | 441 kts | 340° |
| 2026-04-30 13:10 | 40.68981 | 9.02723 | 40091 ft | 442 kts | 340° |
| 2026-04-30 13:10 | 40.74958 | 9.00830 | 40097 ft | 442 kts | 340° |
| 2026-04-30 13:11 | 40.80930 | 8.98935 | 40104 ft | 442 kts | 340° |
| 2026-04-30 13:11 | 40.86906 | 8.97034 | 40103 ft | 441 kts | 340° |
| 2026-04-30 13:12 | 40.92884 | 8.95129 | 40107 ft | 442 kts | 340° |
| 2026-04-30 13:12 | 40.98868 | 8.93217 | 40091 ft | 442 kts | 340° |
| 2026-04-30 13:13 | 41.07849 | 8.90345 | 40098 ft | 443 kts | 340° |
| 2026-04-30 13:14 | 41.16803 | 8.87471 | 40104 ft | 443 kts | 340° |
| 2026-04-30 13:14 | 41.25782 | 8.84526 | 40106 ft | 441 kts | 337° |
| 2026-04-30 13:15 | 41.34516 | 8.80668 | 40107 ft | 440 kts | 335° |
| 2026-04-30 13:16 | 41.40295 | 8.78089 | 40104 ft | 441 kts | 336° |
| 2026-04-30 13:16 | 41.46118 | 8.75493 | 40107 ft | 442 kts | 336° |
| 2026-04-30 13:17 | 41.54887 | 8.71575 | 40102 ft | 443 kts | 336° |
| 2026-04-30 13:18 | 41.63667 | 8.67640 | 40101 ft | 444 kts | 336° |
| 2026-04-30 13:18 | 41.72469 | 8.63682 | 40108 ft | 445 kts | 336° |
| 2026-04-30 13:19 | 41.78321 | 8.61045 | 40108 ft | 447 kts | 336° |
| 2026-04-30 13:19 | 41.84220 | 8.58382 | 40104 ft | 447 kts | 336° |
| 2026-04-30 13:20 | 41.90136 | 8.55706 | 40112 ft | 448 kts | 336° |
| 2026-04-30 13:20 | 41.96048 | 8.53026 | 40106 ft | 449 kts | 336° |
| 2026-04-30 13:21 | 42.01974 | 8.50335 | 40103 ft | 449 kts | 336° |
| 2026-04-30 13:22 | 42.10822 | 8.46307 | 40114 ft | 449 kts | 336° |
| 2026-04-30 13:22 | 42.19727 | 8.42240 | 40098 ft | 450 kts | 336° |
| 2026-04-30 13:23 | 42.28636 | 8.38159 | 40081 ft | 451 kts | 336° |
| 2026-04-30 13:24 | 42.39892 | 8.31062 | 40103 ft | 446 kts | 326° |
| 2026-04-30 13:25 | 42.50710 | 8.22855 | 40105 ft | 447 kts | 327° |
| 2026-04-30 13:26 | 42.64345 | 8.12573 | 40126 ft | 449 kts | 327° |
| 2026-04-30 13:28 | 42.77959 | 8.02256 | 40141 ft | 449 kts | 327° |
| 2026-04-30 13:28 | 42.86164 | 7.96013 | 40141 ft | 450 kts | 327° |
| 2026-04-30 13:29 | 42.97073 | 7.87681 | 40158 ft | 451 kts | 327° |
| 2026-04-30 13:31 | 43.10786 | 7.77159 | 40159 ft | 452 kts | 327° |
| 2026-04-30 13:32 | 43.24481 | 7.66566 | 40156 ft | 453 kts | 327° |
| 2026-04-30 13:33 | 43.35459 | 7.58034 | 40142 ft | 453 kts | 327° |
| 2026-04-30 13:34 | 43.43693 | 7.51612 | 40154 ft | 454 kts | 327° |
| 2026-04-30 13:35 | 43.54656 | 7.43029 | 40149 ft | 454 kts | 327° |
| 2026-04-30 13:36 | 43.65549 | 7.34151 | 40159 ft | 454 kts | 324° |
| 2026-04-30 13:36 | 43.73447 | 7.26862 | 40158 ft | 455 kts | 323° |
| 2026-04-30 13:37 | 43.81331 | 7.19593 | 40167 ft | 457 kts | 324° |
| 2026-04-30 13:38 | 43.89279 | 7.12280 | 40169 ft | 457 kts | 324° |
| 2026-04-30 13:39 | 43.99877 | 7.02492 | 40195 ft | 456 kts | 324° |
| 2026-04-30 13:40 | 44.07760 | 6.95179 | 40193 ft | 455 kts | 324° |
| 2026-04-30 13:40 | 44.13010 | 6.90298 | 40204 ft | 454 kts | 324° |
| 2026-04-30 13:41 | 44.18246 | 6.85419 | 40218 ft | 453 kts | 324° |
| 2026-04-30 13:41 | 44.23486 | 6.80524 | 40195 ft | 453 kts | 324° |
| 2026-04-30 13:42 | 44.28694 | 6.75647 | 40193 ft | 454 kts | 324° |
| 2026-04-30 13:42 | 44.36577 | 6.68244 | 40180 ft | 455 kts | 324° |
| 2026-04-30 13:43 | 44.41829 | 6.63299 | 40179 ft | 456 kts | 324° |
| 2026-04-30 13:43 | 44.47094 | 6.58332 | 40180 ft | 457 kts | 324° |
| 2026-04-30 13:44 | 44.52373 | 6.53339 | 40169 ft | 458 kts | 324° |
| 2026-04-30 13:44 | 44.57669 | 6.48314 | 40161 ft | 459 kts | 324° |
| 2026-04-30 13:45 | 44.65595 | 6.40773 | 40159 ft | 458 kts | 324° |
| 2026-04-30 13:46 | 44.70878 | 6.35731 | 40158 ft | 459 kts | 324° |
| 2026-04-30 13:46 | 44.76124 | 6.30716 | 40175 ft | 459 kts | 324° |
| 2026-04-30 13:47 | 44.81409 | 6.25647 | 40168 ft | 459 kts | 324° |
| 2026-04-30 13:47 | 44.86689 | 6.20576 | 40161 ft | 458 kts | 324° |
| 2026-04-30 13:48 | 44.91940 | 6.15520 | 40154 ft | 457 kts | 324° |
| 2026-04-30 13:48 | 44.97180 | 6.10464 | 40163 ft | 456 kts | 324° |
| 2026-04-30 13:49 | 45.02403 | 6.05411 | 40151 ft | 458 kts | 324° |
| 2026-04-30 13:49 | 45.07680 | 6.00296 | 40152 ft | 460 kts | 324° |
| 2026-04-30 13:50 | 45.12981 | 5.95145 | 40134 ft | 463 kts | 324° |
| 2026-04-30 13:50 | 45.20940 | 5.87390 | 40137 ft | 463 kts | 324° |
| 2026-04-30 13:51 | 45.26261 | 5.82190 | 40127 ft | 463 kts | 324° |
| 2026-04-30 13:51 | 45.31536 | 5.77024 | 40122 ft | 463 kts | 324° |
| 2026-04-30 13:52 | 45.36828 | 5.71827 | 40117 ft | 463 kts | 324° |
| 2026-04-30 13:52 | 45.42124 | 5.66616 | 40120 ft | 463 kts | 324° |
| 2026-04-30 13:53 | 45.47416 | 5.61394 | 40121 ft | 463 kts | 324° |
| 2026-04-30 13:53 | 45.51809 | 5.57054 | 40122 ft | 463 kts | 324° |
| 2026-04-30 13:54 | 45.58224 | 5.51383 | 40116 ft | 464 kts | 334° |
| 2026-04-30 13:54 | 45.64137 | 5.47656 | 40118 ft | 465 kts | 336° |
| 2026-04-30 13:55 | 45.69067 | 5.44610 | 40116 ft | 465 kts | 335° |
| 2026-04-30 13:55 | 45.75010 | 5.40886 | 40111 ft | 466 kts | 335° |
| 2026-04-30 13:56 | 45.80906 | 5.37145 | 40116 ft | 466 kts | 335° |
| 2026-04-30 13:56 | 45.86830 | 5.33370 | 40113 ft | 466 kts | 335° |
| 2026-04-30 13:57 | 45.92776 | 5.29573 | 40111 ft | 467 kts | 335° |
| 2026-04-30 13:57 | 45.98703 | 5.25781 | 40109 ft | 467 kts | 335° |
| 2026-04-30 13:58 | 46.07600 | 5.20073 | 40104 ft | 467 kts | 335° |
| 2026-04-30 13:59 | 46.13537 | 5.16252 | 40086 ft | 467 kts | 335° |
| 2026-04-30 13:59 | 46.19475 | 5.12424 | 40097 ft | 467 kts | 336° |
| 2026-04-30 14:00 | 46.25705 | 5.09778 | 40103 ft | 468 kts | 350° |
| 2026-04-30 14:00 | 46.35452 | 5.09257 | 40087 ft | 470 kts | 0° |
| 2026-04-30 14:01 | 46.42009 | 5.09397 | 40103 ft | 471 kts | 359° |
| 2026-04-30 14:01 | 46.48567 | 5.09419 | 40091 ft | 472 kts | 359° |
| 2026-04-30 14:02 | 46.55127 | 5.09431 | 40097 ft | 471 kts | 359° |
| 2026-04-30 14:02 | 46.61667 | 5.09449 | 40097 ft | 471 kts | 359° |
| 2026-04-30 14:03 | 46.68226 | 5.09469 | 40097 ft | 471 kts | 360° |
| 2026-04-30 14:03 | 46.74784 | 5.09489 | 40101 ft | 470 kts | 359° |
| 2026-04-30 14:04 | 46.81331 | 5.09512 | 40107 ft | 470 kts | 359° |
| 2026-04-30 14:04 | 46.87830 | 5.09544 | 40115 ft | 469 kts | 360° |
| 2026-04-30 14:05 | 46.94357 | 5.09578 | 40112 ft | 469 kts | 360° |
| 2026-04-30 14:05 | 47.00890 | 5.09611 | 40118 ft | 468 kts | 360° |
| 2026-04-30 14:06 | 47.10623 | 5.09658 | 40119 ft | 468 kts | 0° |
| 2026-04-30 14:07 | 47.20416 | 5.09707 | 40130 ft | 469 kts | 0° |
| 2026-04-30 14:08 | 47.30204 | 5.09755 | 40135 ft | 468 kts | 0° |
| 2026-04-30 14:08 | 47.39872 | 5.09803 | 39065 ft | 459 kts | 1° |
| 2026-04-30 14:09 | 47.43095 | 5.09820 | 38001 ft | 465 kts | 1° |
| 2026-04-30 14:09 | 47.46336 | 5.09837 | 36976 ft | 470 kts | 2° |
| 2026-04-30 14:09 | 47.52919 | 5.09870 | 35023 ft | 476 kts | 2° |
| 2026-04-30 14:10 | 47.56242 | 5.09781 | 33952 ft | 479 kts | 356° |
| 2026-04-30 14:10 | 47.59467 | 5.08574 | 32761 ft | 489 kts | 338° |
| 2026-04-30 14:10 | 47.62366 | 5.05955 | 32010 ft | 488 kts | 321° |
| 2026-04-30 14:10 | 47.64860 | 5.02624 | 31367 ft | 481 kts | 319° |
| 2026-04-30 14:11 | 47.67345 | 4.99326 | 30783 ft | 475 kts | 320° |
| 2026-04-30 14:11 | 47.69828 | 4.96138 | 30247 ft | 469 kts | 321° |
| 2026-04-30 14:11 | 47.72307 | 4.93013 | 29520 ft | 465 kts | 321° |
| 2026-04-30 14:11 | 47.74770 | 4.89915 | 28800 ft | 461 kts | 321° |
| 2026-04-30 14:12 | 47.77208 | 4.86837 | 28125 ft | 457 kts | 321° |
| 2026-04-30 14:12 | 47.79614 | 4.83788 | 27520 ft | 453 kts | 321° |
| 2026-04-30 14:12 | 47.82000 | 4.80757 | 26908 ft | 449 kts | 321° |
| 2026-04-30 14:12 | 47.84340 | 4.77781 | 26587 ft | 438 kts | 321° |
| 2026-04-30 14:13 | 47.86619 | 4.74879 | 26274 ft | 435 kts | 321° |
| 2026-04-30 14:13 | 47.88955 | 4.71902 | 25947 ft | 439 kts | 321° |
| 2026-04-30 14:13 | 47.91293 | 4.68921 | 25656 ft | 440 kts | 321° |
| 2026-04-30 14:13 | 47.93587 | 4.65991 | 25300 ft | 440 kts | 321° |
| 2026-04-30 14:14 | 47.95934 | 4.62989 | 24986 ft | 439 kts | 321° |
| 2026-04-30 14:14 | 47.98252 | 4.60021 | 24660 ft | 438 kts | 321° |
| 2026-04-30 14:14 | 48.00535 | 4.57093 | 24341 ft | 436 kts | 321° |
| 2026-04-30 14:14 | 48.02834 | 4.54141 | 24021 ft | 434 kts | 322° |
| 2026-04-30 14:15 | 48.05127 | 4.51194 | 23698 ft | 432 kts | 322° |
| 2026-04-30 14:15 | 48.07378 | 4.48297 | 23333 ft | 430 kts | 322° |
| 2026-04-30 14:15 | 48.09648 | 4.45373 | 22984 ft | 428 kts | 321° |
| 2026-04-30 14:15 | 48.11877 | 4.42498 | 22668 ft | 426 kts | 321° |
| 2026-04-30 14:16 | 48.14107 | 4.39618 | 22353 ft | 423 kts | 321° |
| 2026-04-30 14:16 | 48.16328 | 4.36746 | 22031 ft | 421 kts | 321° |
| 2026-04-30 14:16 | 48.18540 | 4.33883 | 21729 ft | 419 kts | 321° |
| 2026-04-30 14:16 | 48.20737 | 4.31035 | 21427 ft | 417 kts | 321° |
| 2026-04-30 14:17 | 48.22931 | 4.28189 | 21126 ft | 416 kts | 321° |
| 2026-04-30 14:17 | 48.25112 | 4.25357 | 20821 ft | 414 kts | 321° |
| 2026-04-30 14:17 | 48.27220 | 4.22428 | 20517 ft | 413 kts | 314° |
| 2026-04-30 14:17 | 48.29075 | 4.19116 | 20253 ft | 412 kts | 309° |
| 2026-04-30 14:18 | 48.30802 | 4.15731 | 20197 ft | 408 kts | 309° |
| 2026-04-30 14:18 | 48.32564 | 4.12371 | 20158 ft | 408 kts | 310° |
| 2026-04-30 14:18 | 48.36133 | 4.05717 | 20115 ft | 411 kts | 309° |
| 2026-04-30 14:19 | 48.39587 | 3.98925 | 19105 ft | 408 kts | 308° |
| 2026-04-30 14:19 | 48.41308 | 3.95512 | 18512 ft | 408 kts | 308° |
| 2026-04-30 14:19 | 48.43019 | 3.92134 | 18046 ft | 403 kts | 308° |
| 2026-04-30 14:20 | 48.44711 | 3.88799 | 17669 ft | 397 kts | 308° |
| 2026-04-30 14:20 | 48.46380 | 3.85514 | 17322 ft | 395 kts | 308° |
| 2026-04-30 14:20 | 48.49701 | 3.78975 | 16673 ft | 391 kts | 308° |
| 2026-04-30 14:21 | 48.51359 | 3.75707 | 16343 ft | 392 kts | 308° |
| 2026-04-30 14:21 | 48.53013 | 3.72440 | 16026 ft | 391 kts | 308° |
| 2026-04-30 14:21 | 48.56315 | 3.65907 | 15375 ft | 392 kts | 308° |
| 2026-04-30 14:22 | 48.57962 | 3.62643 | 15209 ft | 387 kts | 308° |
| 2026-04-30 14:22 | 48.61144 | 3.56282 | 15158 ft | 382 kts | 305° |
| 2026-04-30 14:22 | 48.62444 | 3.52713 | 15164 ft | 388 kts | 295° |
| 2026-04-30 14:23 | 48.64565 | 3.45142 | 15158 ft | 389 kts | 292° |
| 2026-04-30 14:23 | 48.66645 | 3.37593 | 15152 ft | 389 kts | 292° |
| 2026-04-30 14:24 | 48.68753 | 3.30160 | 15154 ft | 386 kts | 293° |
| 2026-04-30 14:24 | 48.69832 | 3.26396 | 15154 ft | 385 kts | 293° |
| 2026-04-30 14:25 | 48.71955 | 3.19010 | 15144 ft | 387 kts | 293° |
| 2026-04-30 14:25 | 48.74111 | 3.11505 | 15149 ft | 388 kts | 293° |
| 2026-04-30 14:26 | 48.76236 | 3.04090 | 15110 ft | 377 kts | 292° |
| 2026-04-30 14:26 | 48.77251 | 3.00541 | 14818 ft | 352 kts | 292° |
| 2026-04-30 14:26 | 48.79082 | 2.94131 | 13709 ft | 317 kts | 292° |
| 2026-04-30 14:27 | 48.79947 | 2.91090 | 12881 ft | 311 kts | 292° |
| 2026-04-30 14:27 | 48.80801 | 2.88077 | 12122 ft | 312 kts | 292° |
| 2026-04-30 14:27 | 48.81651 | 2.85076 | 11773 ft | 308 kts | 292° |
| 2026-04-30 14:28 | 48.83319 | 2.79188 | 11156 ft | 297 kts | 292° |
| 2026-04-30 14:28 | 48.84122 | 2.76344 | 10767 ft | 296 kts | 292° |
| 2026-04-30 14:28 | 48.84927 | 2.73496 | 10446 ft | 292 kts | 290° |
| 2026-04-30 14:28 | 48.85740 | 2.70602 | 9884 ft | 297 kts | 291° |
| 2026-04-30 14:29 | 48.87343 | 2.64912 | 9060 ft | 294 kts | 291° |
| 2026-04-30 14:29 | 48.88651 | 2.60266 | 8632 ft | 281 kts | 292° |
| 2026-04-30 14:30 | 48.91178 | 2.51239 | 7315 ft | 276 kts | 291° |
| 2026-04-30 14:31 | 48.92678 | 2.45875 | 6477 ft | 276 kts | 291° |
| 2026-04-30 14:31 | 48.94178 | 2.40488 | 5688 ft | 272 kts | 291° |
| 2026-04-30 14:31 | 48.94903 | 2.37891 | 5463 ft | 263 kts | 291° |
| 2026-04-30 14:32 | 48.95207 | 2.36796 | 5367 ft | 260 kts | 291° |
| 2026-04-30 14:32 | 48.95865 | 2.34455 | 5162 ft | 252 kts | 291° |
| 2026-04-30 14:32 | 48.96529 | 2.32056 | 4962 ft | 242 kts | 291° |
| 2026-04-30 14:33 | 48.97172 | 2.29722 | 4753 ft | 236 kts | 292° |
| 2026-04-30 14:33 | 48.99448 | 2.27162 | 4251 ft | 198 kts | 16° |
| 2026-04-30 14:33 | 49.00636 | 2.27985 | 3848 ft | 189 kts | 52° |
| 2026-04-30 14:34 | 49.01196 | 2.29740 | 3399 ft | 184 kts | 84° |
| 2026-04-30 14:34 | 49.01347 | 2.31612 | 3110 ft | 173 kts | 85° |
| 2026-04-30 14:34 | 49.01461 | 2.33365 | 2876 ft | 162 kts | 86° |
| 2026-04-30 14:34 | 49.01554 | 2.35037 | 2680 ft | 152 kts | 88° |
| 2026-04-30 14:35 | 49.01683 | 2.37455 | 2337 ft | 123 kts | 88° |
| 2026-04-30 14:35 | 49.01774 | 2.39358 | 2128 ft | 145 kts | 87° |
| 2026-04-30 14:35 | 49.01862 | 2.40821 | 1900 ft | 128 kts | 87° |
| 2026-04-30 14:36 | 49.01929 | 2.42146 | 1752 ft | 123 kts | 86° |
| 2026-04-30 14:36 | 49.01998 | 2.43482 | 1599 ft | 133 kts | 86° |
| 2026-04-30 14:36 | 49.02076 | 2.44853 | 1390 ft | 125 kts | 86° |
| 2026-04-30 14:36 | 49.02141 | 2.46144 | 1185 ft | 119 kts | 87° |
| 2026-04-30 14:37 | 49.02199 | 2.47457 | 1084 ft | 128 kts | 86° |
| 2026-04-30 14:37 | 49.02282 | 2.48860 | 863 ft | 133 kts | 85° |
| 2026-04-30 14:37 | 49.02381 | 2.50200 | 696 ft | 120 kts | 86° |
| 2026-04-30 14:37 | 49.02435 | 2.51463 | 548 ft | 121 kts | 88° |
| 2026-04-30 14:38 | 49.02519 | 2.52758 | 434 ft | 123 kts | 87° |
| 2026-04-30 14:38 | 49.02547 | 2.54185 | 1010 ft | 136 kts | 88° |
| 2026-04-30 14:38 | 49.02659 | 2.55717 | 2229 ft | 158 kts | 84° |
| 2026-04-30 14:38 | 49.02801 | 2.57639 | 3010 ft | 210 kts | 85° |
| 2026-04-30 14:39 | 49.02975 | 2.60109 | 3723 ft | 254 kts | 85° |
| 2026-04-30 14:39 | 49.03160 | 2.62746 | 4136 ft | 245 kts | 86° |
| 2026-04-30 14:39 | 49.03332 | 2.65271 | 4049 ft | 237 kts | 86° |
| 2026-04-30 14:40 | 49.03726 | 2.69893 | 3972 ft | 204 kts | 65° |
| 2026-04-30 14:40 | 49.04582 | 2.71581 | 4004 ft | 207 kts | 54° |
| 2026-04-30 14:40 | 49.05551 | 2.73352 | 4009 ft | 224 kts | 54° |
| 2026-04-30 14:40 | 49.06623 | 2.75107 | 4003 ft | 226 kts | 51° |
| 2026-04-30 14:41 | 49.07736 | 2.76795 | 4008 ft | 227 kts | 51° |
| 2026-04-30 14:41 | 49.08858 | 2.78510 | 4003 ft | 229 kts | 50° |
| 2026-04-30 14:41 | 49.09907 | 2.80103 | 4014 ft | 230 kts | 51° |
| 2026-04-30 14:41 | 49.10871 | 2.81905 | 3975 ft | 213 kts | 72° |
| 2026-04-30 14:42 | 49.10906 | 2.83964 | 3984 ft | 181 kts | 117° |
| 2026-04-30 14:42 | 49.10378 | 2.84891 | 3974 ft | 175 kts | 149° |
| 2026-04-30 14:42 | 49.08575 | 2.85320 | 4004 ft | 219 kts | 168° |
| 2026-04-30 14:42 | 49.07055 | 2.85616 | 3998 ft | 225 kts | 178° |
| 2026-04-30 14:43 | 49.06032 | 2.85197 | 4025 ft | 236 kts | 204° |
| 2026-04-30 14:43 | 49.04732 | 2.83635 | 4011 ft | 241 kts | 219° |
| 2026-04-30 14:43 | 49.03537 | 2.81810 | 4014 ft | 246 kts | 220° |
| 2026-04-30 14:43 | 49.02316 | 2.79934 | 4004 ft | 249 kts | 220° |
| 2026-04-30 14:44 | 49.01103 | 2.78083 | 3996 ft | 244 kts | 221° |
| 2026-04-30 14:44 | 48.99923 | 2.76270 | 3995 ft | 238 kts | 220° |
| 2026-04-30 14:44 | 48.98719 | 2.74560 | 3999 ft | 238 kts | 218° |
| 2026-04-30 14:44 | 48.97491 | 2.72856 | 3996 ft | 238 kts | 218° |
| 2026-04-30 14:45 | 48.96264 | 2.71158 | 4000 ft | 238 kts | 217° |
| 2026-04-30 14:45 | 48.95173 | 2.69277 | 4001 ft | 244 kts | 238° |
| 2026-04-30 14:45 | 48.94736 | 2.66735 | 4013 ft | 253 kts | 263° |
| 2026-04-30 14:45 | 48.94676 | 2.64032 | 3997 ft | 256 kts | 267° |
| 2026-04-30 14:46 | 48.94663 | 2.61338 | 4016 ft | 255 kts | 268° |
| 2026-04-30 14:46 | 48.94656 | 2.58671 | 4017 ft | 252 kts | 268° |
| 2026-04-30 14:46 | 48.94539 | 2.56054 | 3993 ft | 242 kts | 252° |
| 2026-04-30 14:46 | 48.93892 | 2.53695 | 4003 ft | 244 kts | 241° |
| 2026-04-30 14:47 | 48.93170 | 2.51317 | 4021 ft | 250 kts | 242° |
| 2026-04-30 14:47 | 48.92463 | 2.48949 | 4009 ft | 249 kts | 242° |
| 2026-04-30 14:47 | 48.91783 | 2.46633 | 4015 ft | 246 kts | 242° |
| 2026-04-30 14:47 | 48.91083 | 2.44274 | 4013 ft | 247 kts | 242° |
| 2026-04-30 14:48 | 48.90383 | 2.41924 | 4021 ft | 246 kts | 242° |
| 2026-04-30 14:48 | 48.89671 | 2.39548 | 4009 ft | 245 kts | 242° |
| 2026-04-30 14:48 | 48.88969 | 2.37268 | 4004 ft | 245 kts | 241° |
| 2026-04-30 14:48 | 48.88251 | 2.34883 | 4004 ft | 255 kts | 243° |
| 2026-04-30 14:49 | 48.87477 | 2.32362 | 4030 ft | 278 kts | 242° |
| 2026-04-30 14:49 | 48.86659 | 2.29697 | 3990 ft | 279 kts | 242° |
| 2026-04-30 14:49 | 48.85829 | 2.27003 | 3981 ft | 278 kts | 241° |
| 2026-04-30 14:49 | 48.84998 | 2.24427 | 3961 ft | 273 kts | 236° |
| 2026-04-30 14:50 | 48.82894 | 2.19608 | 3972 ft | 275 kts | 231° |
| 2026-04-30 14:50 | 48.81803 | 2.17193 | 3990 ft | 278 kts | 232° |
| 2026-04-30 14:51 | 48.79671 | 2.12480 | 3994 ft | 276 kts | 233° |
| 2026-04-30 14:51 | 48.78641 | 2.10224 | 3989 ft | 274 kts | 232° |
| 2026-04-30 14:51 | 48.76477 | 2.05491 | 3980 ft | 273 kts | 232° |
| 2026-04-30 14:52 | 48.75397 | 2.03108 | 3967 ft | 276 kts | 231° |
| 2026-04-30 14:52 | 48.73211 | 1.98327 | 3984 ft | 275 kts | 232° |
| 2026-04-30 14:52 | 48.72156 | 1.96044 | 3956 ft | 265 kts | 232° |
| 2026-04-30 14:53 | 48.70156 | 1.91778 | 3966 ft | 242 kts | 227° |
| 2026-04-30 14:53 | 48.68979 | 1.90034 | 3638 ft | 236 kts | 204° |
| 2026-04-30 14:54 | 48.66016 | 1.90196 | 3021 ft | 213 kts | 141° |
| 2026-04-30 14:54 | 48.63845 | 1.93102 | 2896 ft | 211 kts | 134° |
| 2026-04-30 14:55 | 48.61700 | 1.96168 | 2387 ft | 209 kts | 130° |
| 2026-04-30 14:55 | 48.61081 | 1.97856 | 2234 ft | 202 kts | 98° |
| 2026-04-30 14:55 | 48.61788 | 2.01951 | 2932 ft | 210 kts | 72° |
| 2026-04-30 14:56 | 48.62936 | 2.06019 | 3585 ft | 219 kts | 66° |
| 2026-04-30 14:56 | 48.64406 | 2.10229 | 3474 ft | 232 kts | 65° |
| 2026-04-30 14:57 | 48.65142 | 2.12287 | 3154 ft | 212 kts | 65° |
| 2026-04-30 14:57 | 48.66407 | 2.15853 | 2699 ft | 173 kts | 67° |
| 2026-04-30 14:58 | 48.67461 | 2.18839 | 2234 ft | 146 kts | 66° |
| 2026-04-30 14:58 | 48.67914 | 2.20107 | 2051 ft | 129 kts | 68° |
| 2026-04-30 14:58 | 48.68779 | 2.22531 | 1794 ft | 136 kts | 62° |
| 2026-04-30 14:59 | 48.69500 | 2.24280 | 2069 ft | 179 kts | 76° |